Time;durP1;ratioP1;P1;durP2;ratioP2;P2;SDS_P1;SDS_P2;PMS_P1;PMS_P2;Temp;Humidity;BMP_temperature;BMP_pressure;BME280_temperature;BME280_humidity;BME280_pressure;Samples;Min_cycle;Max_cycle;Signal;HPM_P1;HPM_P2
2023/10/21 00:00:29;;;;;;;1.50;0.75;;;11.40;99.90;;;;;;5047849;28;20035;-30
2023/10/21 00:02:54;;;;;;;1.05;1.00;;;11.60;99.90;;;;;;5044006;28;20125;-30
2023/10/21 00:05:20;;;;;;;0.85;0.85;;;11.60;99.90;;;;;;5047467;28;20039;-30
2023/10/21 00:07:46;;;;;;;0.90;0.90;;;11.60;99.90;;;;;;5045356;28;20346;-29
2023/10/21 00:10:11;;;;;;;0.73;0.73;;;11.60;99.90;;;;;;5050065;28;20029;-30
2023/10/21 00:12:37;;;;;;;0.93;0.90;;;11.60;99.90;;;;;;5046392;28;20048;-34
2023/10/21 00:15:09;;;;;;;0.98;0.80;;;11.60;99.90;;;;;;5052212;28;20434;-31
2023/10/21 00:17:35;;;;;;;0.80;0.80;;;11.60;99.90;;;;;;5049323;28;20033;-30
2023/10/21 00:20:02;;;;;;;0.90;0.90;;;11.60;99.90;;;;;;5051509;28;20071;-31
2023/10/21 00:22:28;;;;;;;0.95;0.93;;;11.60;99.90;;;;;;5048297;28;20031;-31
2023/10/21 00:24:54;;;;;;;0.90;0.80;;;11.50;99.90;;;;;;5048824;28;20119;-31
2023/10/21 00:27:19;;;;;;;0.82;0.82;;;11.50;99.90;;;;;;5050362;28;20028;-32
2023/10/21 00:29:45;;;;;;;0.70;0.70;;;11.50;99.90;;;;;;5048589;28;20036;-31
2023/10/21 00:32:11;;;;;;;1.80;0.88;;;11.50;99.90;;;;;;5049751;28;20563;-30
2023/10/21 00:34:39;;;;;;;0.82;0.73;;;11.60;99.90;;;;;;5047771;28;20114;-33
2023/10/21 00:37:07;;;;;;;0.80;0.80;;;11.60;99.90;;;;;;5046080;28;20363;-32
2023/10/21 00:39:34;;;;;;;0.85;0.85;;;11.60;99.90;;;;;;5049305;28;20024;-30
2023/10/21 00:42:04;;;;;;;1.40;0.90;;;11.60;99.90;;;;;;5048368;28;20044;-31
2023/10/21 00:44:30;;;;;;;2.25;1.08;;;11.60;99.90;;;;;;5043444;28;20163;-30
2023/10/21 00:46:59;;;;;;;0.75;0.75;;;11.60;99.90;;;;;;5049486;28;20036;-30
2023/10/21 00:49:28;;;;;;;0.77;0.60;;;11.60;99.90;;;;;;5047987;28;20477;-30
2023/10/21 00:51:55;;;;;;;0.77;0.77;;;11.40;99.90;;;;;;5053733;28;20036;-30
2023/10/21 00:54:23;;;;;;;1.20;0.90;;;11.30;99.90;;;;;;5047937;28;20031;-30
2023/10/21 00:56:48;;;;;;;1.08;0.70;;;11.40;99.90;;;;;;5048210;28;20024;-30
2023/10/21 00:59:15;;;;;;;2.63;0.90;;;11.30;99.90;;;;;;5048421;28;20126;-34
2023/10/21 01:01:40;;;;;;;0.70;0.70;;;11.40;99.90;;;;;;5044728;28;20044;-37
2023/10/21 01:04:08;;;;;;;0.88;0.88;;;11.40;99.90;;;;;;5044861;28;20029;-38
2023/10/21 01:06:34;;;;;;;0.60;0.60;;;11.30;99.90;;;;;;5042710;28;20123;-40
2023/10/21 01:08:59;;;;;;;0.80;0.80;;;11.30;99.90;;;;;;5046408;28;20727;-39
2023/10/21 01:11:25;;;;;;;1.00;1.00;;;11.30;99.90;;;;;;5041199;28;20430;-39
2023/10/21 01:13:51;;;;;;;1.13;1.13;;;11.30;99.90;;;;;;5044952;28;22080;-38
2023/10/21 01:16:17;;;;;;;1.10;1.00;;;11.30;99.90;;;;;;5044606;28;20036;-39
2023/10/21 01:18:44;;;;;;;1.40;1.00;;;11.30;99.90;;;;;;5045715;28;20028;-37
2023/10/21 01:21:10;;;;;;;0.90;0.90;;;11.20;99.90;;;;;;5045277;28;20025;-37
2023/10/21 01:23:36;;;;;;;1.75;0.90;;;11.10;99.90;;;;;;5043988;28;20043;-39
2023/10/21 01:26:05;;;;;;;0.70;0.70;;;11.00;99.90;;;;;;5044981;28;20037;-37
2023/10/21 01:28:35;;;;;;;0.95;0.93;;;11.10;99.90;;;;;;5042415;28;20132;-39
2023/10/21 01:31:01;;;;;;;0.95;0.90;;;11.10;99.90;;;;;;5044383;28;20033;-35
2023/10/21 01:33:26;;;;;;;1.60;1.13;;;11.00;99.90;;;;;;5042949;28;20055;-36
2023/10/21 01:35:52;;;;;;;1.80;1.25;;;11.00;99.90;;;;;;5046922;28;20029;-36
2023/10/21 01:38:18;;;;;;;2.47;1.10;;;11.00;99.90;;;;;;5043189;28;20037;-34
2023/10/21 01:40:44;;;;;;;0.80;0.80;;;11.10;99.90;;;;;;5041818;28;20195;-36
2023/10/21 01:43:10;;;;;;;2.42;0.93;;;11.10;99.90;;;;;;5046767;28;20041;-36
2023/10/21 01:45:36;;;;;;;2.10;1.00;;;11.20;99.90;;;;;;5045212;28;20123;-33
2023/10/21 01:48:03;;;;;;;2.58;1.33;;;11.20;99.90;;;;;;5052469;28;20051;-34
2023/10/21 01:50:29;;;;;;;1.20;0.98;;;11.20;99.90;;;;;;5042907;28;20086;-35
2023/10/21 01:52:55;;;;;;;1.00;1.00;;;11.10;99.90;;;;;;5047843;28;20058;-35
2023/10/21 01:55:21;;;;;;;0.90;0.90;;;11.10;99.90;;;;;;5048287;28;20040;-36
2023/10/21 01:57:47;;;;;;;1.00;1.00;;;11.10;99.90;;;;;;5043271;28;20476;-34
2023/10/21 02:00:18;;;;;;;0.82;0.82;;;11.10;99.90;;;;;;5043937;28;20393;-36
2023/10/21 02:02:49;;;;;;;1.55;1.00;;;11.10;99.90;;;;;;5039459;28;20180;-39
2023/10/21 02:05:15;;;;;;;1.40;1.00;;;11.10;99.90;;;;;;5049207;28;20099;-35
2023/10/21 02:07:40;;;;;;;1.10;0.80;;;11.10;99.90;;;;;;5042716;28;20123;-38
2023/10/21 02:10:06;;;;;;;1.10;1.00;;;11.20;99.90;;;;;;5042348;28;20467;-41
2023/10/21 02:12:32;;;;;;;1.13;1.10;;;11.20;99.90;;;;;;5041160;28;20029;-41
2023/10/21 02:14:58;;;;;;;2.22;1.10;;;11.20;99.90;;;;;;5045055;28;20108;-40
2023/10/21 02:17:24;;;;;;;1.95;1.15;;;11.10;99.90;;;;;;5040445;28;20488;-38
2023/10/21 02:19:56;;;;;;;3.80;1.20;;;11.00;99.90;;;;;;5043430;28;20033;-38
2023/10/21 02:22:25;;;;;;;0.88;0.88;;;11.00;99.90;;;;;;5037563;28;20501;-38
2023/10/21 02:24:56;;;;;;;0.93;0.90;;;10.90;99.90;;;;;;5041972;28;20115;-42
2023/10/21 02:27:22;;;;;;;2.15;1.10;;;10.90;99.90;;;;;;5044379;28;20040;-37
2023/10/21 02:29:49;;;;;;;1.00;1.00;;;10.90;99.90;;;;;;5042568;28;20074;-39
2023/10/21 02:32:15;;;;;;;2.03;1.00;;;10.90;99.90;;;;;;5035908;28;20106;-34
2023/10/21 02:34:41;;;;;;;1.20;1.10;;;10.90;99.90;;;;;;5042810;28;20029;-32
2023/10/21 02:37:07;;;;;;;0.90;0.82;;;10.90;99.90;;;;;;5043854;28;20059;-41
2023/10/21 02:39:32;;;;;;;3.17;0.93;;;10.80;99.90;;;;;;5040538;28;20040;-39
2023/10/21 02:41:58;;;;;;;2.22;1.10;;;10.80;99.90;;;;;;5044730;28;20037;-40
2023/10/21 02:44:24;;;;;;;1.08;0.90;;;10.80;99.90;;;;;;5044332;28;20029;-40
2023/10/21 02:46:49;;;;;;;0.90;0.90;;;10.70;99.90;;;;;;5039870;28;20025;-40
2023/10/21 02:49:15;;;;;;;2.70;1.05;;;10.70;99.90;;;;;;5042800;28;20426;-38
2023/10/21 02:51:41;;;;;;;1.13;1.10;;;10.50;99.90;;;;;;5045998;28;20029;-40
2023/10/21 02:54:07;;;;;;;0.90;0.90;;;10.40;99.90;;;;;;5042437;28;20115;-40
2023/10/21 02:56:33;;;;;;;1.25;1.17;;;10.40;99.90;;;;;;5046560;28;20029;-42
2023/10/21 02:58:59;;;;;;;1.00;1.00;;;10.40;99.90;;;;;;5042232;28;20025;-41
2023/10/21 03:01:25;;;;;;;0.98;0.98;;;10.50;99.90;;;;;;5046626;28;20098;-38
2023/10/21 03:03:51;;;;;;;0.80;0.80;;;10.50;99.90;;;;;;5045211;28;20097;-42
2023/10/21 03:06:21;;;;;;;1.13;0.68;;;10.50;99.90;;;;;;5049297;28;20021;-40
2023/10/21 03:08:47;;;;;;;0.95;0.80;;;10.50;99.90;;;;;;5045829;28;20040;-36
2023/10/21 03:11:12;;;;;;;0.85;0.85;;;10.50;99.90;;;;;;5046203;28;20467;-41
2023/10/21 03:13:38;;;;;;;2.25;0.80;;;10.50;99.90;;;;;;5046247;28;20041;-36
2023/10/21 03:16:09;;;;;;;0.90;0.90;;;10.50;99.90;;;;;;5046436;28;20482;-40
2023/10/21 03:18:36;;;;;;;0.80;0.80;;;10.30;99.90;;;;;;5045722;28;20367;-41
2023/10/21 03:21:03;;;;;;;1.10;1.08;;;10.30;99.90;;;;;;5049175;28;20028;-40
2023/10/21 03:23:29;;;;;;;2.45;0.90;;;10.20;99.90;;;;;;5049050;28;20025;-31
2023/10/21 03:26:00;;;;;;;1.30;0.90;;;10.10;99.90;;;;;;5050664;28;20445;-35
2023/10/21 03:28:26;;;;;;;1.35;0.90;;;10.20;99.90;;;;;;5047766;28;20029;-31
2023/10/21 03:30:56;;;;;;;0.70;0.70;;;10.20;99.90;;;;;;5047108;28;20514;-33
2023/10/21 03:33:24;;;;;;;1.83;0.80;;;10.20;99.90;;;;;;5044118;28;20060;-34
2023/10/21 03:35:58;;;;;;;1.45;0.73;;;10.20;99.90;;;;;;5053094;28;20410;-31
2023/10/21 03:38:24;;;;;;;0.75;0.73;;;10.30;99.90;;;;;;5048381;28;20386;-33
2023/10/21 03:40:58;;;;;;;3.33;1.17;;;10.30;99.90;;;;;;5045211;28;20048;-33
2023/10/21 03:43:25;;;;;;;0.60;0.60;;;10.30;99.90;;;;;;5047439;28;20041;-31
2023/10/21 03:45:52;;;;;;;1.35;0.80;;;10.30;99.90;;;;;;5046277;28;20051;-32
2023/10/21 03:48:17;;;;;;;0.70;0.70;;;10.30;99.90;;;;;;5045466;28;22202;-34
2023/10/21 03:50:43;;;;;;;0.60;0.60;;;10.30;99.90;;;;;;5044170;28;20075;-32
2023/10/21 03:53:08;;;;;;;0.93;0.70;;;10.40;99.90;;;;;;5048441;28;20071;-32
2023/10/21 03:55:34;;;;;;;1.15;0.70;;;10.30;99.90;;;;;;5047721;28;20121;-34
2023/10/21 03:58:00;;;;;;;0.88;0.82;;;10.20;99.90;;;;;;5045535;28;20598;-32
2023/10/21 04:00:26;;;;;;;0.77;0.77;;;10.30;99.90;;;;;;5047978;28;20029;-31
2023/10/21 04:02:51;;;;;;;0.95;0.95;;;10.20;99.90;;;;;;5043507;28;20083;-31
2023/10/21 04:05:17;;;;;;;0.80;0.80;;;10.20;99.90;;;;;;5050026;28;20029;-31
2023/10/21 04:07:44;;;;;;;0.90;0.90;;;10.10;99.90;;;;;;5042133;28;20028;-33
2023/10/21 04:10:10;;;;;;;0.98;0.82;;;10.10;99.90;;;;;;5044526;28;20086;-32
2023/10/21 04:12:36;;;;;;;1.02;0.90;;;10.10;99.90;;;;;;5044877;28;20024;-31
2023/10/21 04:15:02;;;;;;;0.95;0.90;;;10.00;99.90;;;;;;5050052;28;20033;-33
2023/10/21 04:17:28;;;;;;;0.90;0.90;;;10.00;99.90;;;;;;5044893;28;20064;-33
2023/10/21 04:19:53;;;;;;;0.90;0.90;;;10.00;99.90;;;;;;5046955;28;20049;-31
2023/10/21 04:22:19;;;;;;;0.98;0.98;;;10.00;99.90;;;;;;5042264;28;20032;-36
2023/10/21 04:24:45;;;;;;;1.55;1.00;;;10.10;99.90;;;;;;5045939;28;20437;-38
2023/10/21 04:27:11;;;;;;;2.13;1.65;;;10.10;99.90;;;;;;5045015;28;20036;-36
2023/10/21 04:29:37;;;;;;;3.00;0.90;;;10.00;99.90;;;;;;5046083;28;20389;-34
2023/10/21 04:32:02;;;;;;;2.13;0.90;;;10.00;99.90;;;;;;5045799;28;20029;-33
2023/10/21 04:34:28;;;;;;;0.77;0.77;;;10.00;99.90;;;;;;5042709;28;20021;-38
2023/10/21 04:36:54;;;;;;;0.80;0.80;;;10.00;99.90;;;;;;5046322;28;20033;-33
2023/10/21 04:39:19;;;;;;;0.70;0.70;;;10.00;99.90;;;;;;5045105;28;20037;-35
2023/10/21 04:41:48;;;;;;;0.82;0.82;;;10.10;99.90;;;;;;5042858;28;20079;-33
2023/10/21 04:44:13;;;;;;;1.05;0.75;;;10.20;99.90;;;;;;5045550;28;20421;-33
2023/10/21 04:46:39;;;;;;;0.70;0.65;;;10.40;99.90;;;;;;5040722;28;20029;-32
2023/10/21 04:49:05;;;;;;;0.52;0.52;;;10.50;99.90;;;;;;5047574;28;20033;-33
2023/10/21 04:51:31;;;;;;;0.65;0.65;;;10.60;99.90;;;;;;5045773;28;20029;-32
2023/10/21 04:53:57;;;;;;;0.77;0.60;;;10.70;99.90;;;;;;5045583;28;20032;-33
2023/10/21 04:56:24;;;;;;;0.98;0.90;;;10.70;99.90;;;;;;5045640;28;20065;-32
2023/10/21 04:58:50;;;;;;;4.38;0.90;;;10.70;99.90;;;;;;5048677;28;20418;-33
2023/10/21 05:01:16;;;;;;;0.70;0.70;;;10.60;99.90;;;;;;5044974;28;20037;-37
2023/10/21 05:03:43;;;;;;;0.65;0.65;;;10.60;99.90;;;;;;5046246;28;20045;-34
2023/10/21 05:06:09;;;;;;;0.70;0.70;;;10.50;99.90;;;;;;5048138;28;20036;-33
2023/10/21 05:08:35;;;;;;;0.82;0.82;;;10.50;99.90;;;;;;5043913;28;20540;-33
2023/10/21 05:11:00;;;;;;;0.93;0.80;;;10.50;99.90;;;;;;5044814;28;20032;-32
2023/10/21 05:13:26;;;;;;;0.85;0.85;;;10.50;99.90;;;;;;5042812;28;20627;-33
2023/10/21 05:15:51;;;;;;;0.63;0.63;;;10.60;99.90;;;;;;5046340;28;20029;-34
2023/10/21 05:18:17;;;;;;;0.95;0.80;;;10.70;99.90;;;;;;5043662;28;20025;-33
2023/10/21 05:20:43;;;;;;;1.33;0.88;;;10.70;99.90;;;;;;5044144;28;20448;-32
2023/10/21 05:23:08;;;;;;;0.68;0.68;;;10.80;99.90;;;;;;5045360;28;20044;-33
2023/10/21 05:25:34;;;;;;;0.88;0.88;;;10.90;99.90;;;;;;5046790;28;20076;-33
2023/10/21 05:28:00;;;;;;;1.02;0.95;;;11.00;99.90;;;;;;5040271;28;20059;-33
2023/10/21 05:30:25;;;;;;;1.27;0.80;;;11.00;99.90;;;;;;5038344;28;20485;-33
2023/10/21 05:32:51;;;;;;;0.82;0.70;;;11.00;99.90;;;;;;5043463;28;20082;-33
2023/10/21 05:35:17;;;;;;;1.05;0.77;;;11.00;99.90;;;;;;5045685;28;20916;-32
2023/10/21 05:37:43;;;;;;;0.70;0.70;;;11.00;99.90;;;;;;5043302;28;20033;-32
2023/10/21 05:40:09;;;;;;;2.47;0.70;;;11.10;99.90;;;;;;5041536;28;20787;-31
2023/10/21 05:42:35;;;;;;;0.70;0.70;;;11.10;99.90;;;;;;5045150;28;20033;-39
2023/10/21 05:45:01;;;;;;;0.60;0.60;;;11.10;99.90;;;;;;5042280;28;20039;-41
2023/10/21 05:47:26;;;;;;;0.60;0.60;;;11.10;99.90;;;;;;5045753;28;20032;-38
2023/10/21 05:49:53;;;;;;;0.60;0.60;;;11.20;99.90;;;;;;5045201;28;20025;-43
2023/10/21 05:52:18;;;;;;;0.80;0.80;;;11.20;99.90;;;;;;5049347;28;20498;-41
2023/10/21 05:54:44;;;;;;;0.70;0.70;;;11.20;99.90;;;;;;5041765;28;20037;-40
2023/10/21 05:57:10;;;;;;;3.20;0.80;;;11.30;99.90;;;;;;5043401;28;20427;-41
2023/10/21 05:59:36;;;;;;;1.20;0.60;;;11.30;99.90;;;;;;5044363;28;20472;-39
2023/10/21 06:02:02;;;;;;;1.38;0.70;;;11.40;99.90;;;;;;5042390;28;20029;-38
2023/10/21 06:04:27;;;;;;;0.70;0.70;;;11.40;99.90;;;;;;5042956;28;20051;-40
2023/10/21 06:06:56;;;;;;;1.65;1.30;;;11.40;99.90;;;;;;5041904;28;20482;-38
2023/10/21 06:09:23;;;;;;;2.05;0.80;;;11.40;99.90;;;;;;5044965;28;20071;-41
2023/10/21 06:11:50;;;;;;;1.75;1.05;;;11.50;99.90;;;;;;5041017;28;20137;-39
2023/10/21 06:14:17;;;;;;;1.00;0.90;;;11.50;99.90;;;;;;5042321;28;20037;-39
2023/10/21 06:16:43;;;;;;;0.95;0.93;;;11.60;99.90;;;;;;5043935;28;20032;-39
2023/10/21 06:19:09;;;;;;;0.82;0.80;;;11.60;99.90;;;;;;5046232;28;20041;-43
2023/10/21 06:21:36;;;;;;;0.90;0.90;;;11.60;99.90;;;;;;5044368;28;20115;-42
2023/10/21 06:24:03;;;;;;;0.82;0.82;;;11.60;99.90;;;;;;5045925;28;20565;-40
2023/10/21 06:26:31;;;;;;;1.42;0.90;;;11.70;99.90;;;;;;5044131;28;20116;-41
2023/10/21 06:28:56;;;;;;;0.80;0.80;;;11.70;99.90;;;;;;5044652;28;20041;-40
2023/10/21 06:31:22;;;;;;;0.80;0.80;;;11.70;99.90;;;;;;5040939;28;20605;-38
2023/10/21 06:33:48;;;;;;;1.20;1.00;;;11.80;99.90;;;;;;5044856;28;20040;-41
2023/10/21 06:36:14;;;;;;;1.70;1.20;;;11.80;99.90;;;;;;5053423;28;20025;-41
2023/10/21 06:38:40;;;;;;;4.13;1.23;;;11.90;99.90;;;;;;5039308;28;20678;-41
2023/10/21 06:41:06;;;;;;;7.53;1.73;;;11.80;99.90;;;;;;5048009;28;20025;-40
2023/10/21 06:43:31;;;;;;;2.95;1.17;;;11.90;99.90;;;;;;5046598;28;20049;-34
2023/10/21 06:45:57;;;;;;;0.90;0.85;;;11.90;99.90;;;;;;5049530;28;20032;-32
2023/10/21 06:48:23;;;;;;;0.90;0.90;;;11.90;99.90;;;;;;5048426;28;20116;-34
2023/10/21 06:50:49;;;;;;;3.17;1.25;;;11.90;99.90;;;;;;5045899;28;20163;-33
2023/10/21 06:53:14;;;;;;;0.70;0.70;;;12.00;99.90;;;;;;5048536;28;20024;-34
2023/10/21 06:55:44;;;;;;;1.35;1.20;;;12.00;99.90;;;;;;5046634;28;20037;-40
2023/10/21 06:58:11;;;;;;;0.60;0.60;;;12.10;99.90;;;;;;5040203;28;20025;-40
2023/10/21 07:00:37;;;;;;;0.65;0.65;;;12.10;99.90;;;;;;5035932;28;20200;-37
2023/10/21 07:03:03;;;;;;;1.13;0.65;;;12.10;99.90;;;;;;5051898;28;20056;-36
2023/10/21 07:05:29;;;;;;;0.75;0.70;;;12.10;99.90;;;;;;5051438;28;20124;-35
2023/10/21 07:07:55;;;;;;;0.73;0.70;;;12.10;99.90;;;;;;5051937;28;20029;-32
2023/10/21 07:10:20;;;;;;;1.58;0.90;;;12.20;99.90;;;;;;5043829;28;20494;-32
2023/10/21 07:12:46;;;;;;;0.90;0.80;;;12.30;99.90;;;;;;5045906;28;20025;-33
2023/10/21 07:15:12;;;;;;;2.60;0.90;;;12.30;99.90;;;;;;5049190;28;20022;-34
2023/10/21 07:17:37;;;;;;;0.80;0.80;;;12.40;99.90;;;;;;5045600;28;20120;-35
2023/10/21 07:20:05;;;;;;;0.70;0.70;;;12.40;99.90;;;;;;5047737;28;20037;-32
2023/10/21 07:22:31;;;;;;;1.63;1.00;;;12.50;99.90;;;;;;5048699;28;20103;-31
2023/10/21 07:24:57;;;;;;;1.83;0.82;;;12.60;99.90;;;;;;5042827;28;20080;-31
2023/10/21 07:27:24;;;;;;;1.00;0.90;;;12.60;99.90;;;;;;5049127;28;20035;-32
2023/10/21 07:29:50;;;;;;;1.67;0.70;;;12.60;99.90;;;;;;5046780;28;20032;-33
2023/10/21 07:32:16;;;;;;;0.68;0.68;;;12.60;99.90;;;;;;5043877;28;20037;-33
2023/10/21 07:34:42;;;;;;;0.70;0.70;;;12.60;99.90;;;;;;5043093;28;20367;-33
2023/10/21 07:37:07;;;;;;;0.73;0.70;;;12.70;99.90;;;;;;5049636;28;20028;-32
2023/10/21 07:39:33;;;;;;;0.80;0.80;;;12.70;99.90;;;;;;5048504;28;20758;-31
2023/10/21 07:41:59;;;;;;;0.60;0.60;;;12.70;99.90;;;;;;5047982;28;20029;-32
2023/10/21 07:44:28;;;;;;;0.57;0.57;;;12.70;99.90;;;;;;5049504;28;20055;-31
2023/10/21 07:46:54;;;;;;;;;;;12.80;99.90;;;;;;5043436;28;20040;-31
2023/10/21 07:49:20;;;;;;;0.70;0.70;;;12.80;99.90;;;;;;5046811;28;19916;-31
2023/10/21 07:51:45;;;;;;;0.55;0.55;;;12.80;99.90;;;;;;5044238;28;20033;-38
2023/10/21 07:54:12;;;;;;;0.50;0.50;;;12.80;99.90;;;;;;5045139;28;20041;-37
2023/10/21 07:56:38;;;;;;;2.08;0.70;;;12.90;99.90;;;;;;5045146;28;20148;-34
2023/10/21 07:59:05;;;;;;;1.20;0.60;;;12.90;99.90;;;;;;5043879;28;20024;-38
2023/10/21 08:01:31;;;;;;;1.30;0.90;;;13.00;99.90;;;;;;5043020;28;20044;-39
2023/10/21 08:03:56;;;;;;;0.75;0.75;;;13.10;99.90;;;;;;5039207;28;20037;-39
2023/10/21 08:06:22;;;;;;;1.90;0.73;;;13.10;99.90;;;;;;5043292;28;20486;-38
2023/10/21 08:08:48;;;;;;;1.02;0.60;;;13.20;99.90;;;;;;5043804;28;20775;-39
2023/10/21 08:11:13;;;;;;;0.40;0.40;;;13.20;99.90;;;;;;5046287;28;20029;-39
2023/10/21 08:14:22;;;;;;;0.52;0.52;;;13.30;99.90;;;;;;5049400;28;20025;-30
2023/10/21 08:16:48;;;;;;;0.60;0.60;;;13.50;99.90;;;;;;5045858;28;20044;-30
2023/10/21 08:19:13;;;;;;;0.68;0.68;;;13.70;99.90;;;;;;5046240;28;20033;-32
2023/10/21 08:21:40;;;;;;;1.40;0.50;;;13.80;99.90;;;;;;5047862;28;20036;-33
2023/10/21 08:24:07;;;;;;;0.50;0.50;;;14.00;99.90;;;;;;5054703;28;20052;-31
2023/10/21 08:26:33;;;;;;;0.40;0.40;;;14.20;99.90;;;;;;5045886;28;20378;-31
2023/10/21 08:28:59;;;;;;;9.98;1.05;;;14.30;99.90;;;;;;5046966;28;20090;-32
2023/10/21 08:31:25;;;;;;;1.75;0.50;;;14.30;99.90;;;;;;5044069;28;20029;-33
2023/10/21 08:33:56;;;;;;;0.30;0.30;;;14.40;99.90;;;;;;5048422;28;20017;-30
2023/10/21 08:36:22;;;;;;;2.10;0.60;;;14.40;99.90;;;;;;5049337;28;20090;-31
2023/10/21 08:38:50;;;;;;;1.75;0.50;;;14.40;99.90;;;;;;5045932;28;20374;-33
2023/10/21 08:41:16;;;;;;;0.57;0.53;;;14.50;99.90;;;;;;5052052;28;20944;-32
2023/10/21 08:43:51;;;;;;;0.30;0.30;;;14.50;99.90;;;;;;5050955;28;20333;-30
2023/10/21 08:46:18;;;;;;;1.63;0.32;;;14.60;99.90;;;;;;5045541;28;20072;-36
2023/10/21 08:48:46;;;;;;;0.88;0.80;;;14.70;99.90;;;;;;5045029;28;20490;-31
2023/10/21 08:51:18;;;;;;;0.57;0.30;;;14.90;99.90;;;;;;5042781;28;20033;-32
2023/10/21 08:53:46;;;;;;;0.30;0.30;;;15.00;99.90;;;;;;5045862;28;20394;-32
2023/10/21 08:56:13;;;;;;;0.43;0.43;;;15.00;99.90;;;;;;5047515;28;20029;-31
2023/10/21 08:58:39;;;;;;;1.42;0.57;;;14.90;99.90;;;;;;5045662;28;20163;-32
2023/10/21 09:01:05;;;;;;;0.50;0.50;;;15.00;99.90;;;;;;5048314;28;20123;-30
2023/10/21 09:03:32;;;;;;;0.75;0.50;;;15.00;99.90;;;;;;5045482;28;20521;-33
2023/10/21 09:06:11;;;;;;;1.30;0.35;;;15.10;99.90;;;;;;5046010;28;20033;-31
2023/10/21 09:08:38;;;;;;;0.40;0.40;;;15.20;99.90;;;;;;5046268;28;20028;-33
2023/10/21 09:11:06;;;;;;;0.20;0.20;;;15.20;99.90;;;;;;5046226;28;20063;-32
2023/10/21 09:13:34;;;;;;;0.75;0.43;;;15.20;99.90;;;;;;5047074;28;20098;-31
2023/10/21 09:16:03;;;;;;;0.22;0.22;;;15.40;99.90;;;;;;5043790;28;20037;-35
2023/10/21 09:18:28;;;;;;;0.40;0.40;;;15.50;99.90;;;;;;5039071;28;20032;-32
2023/10/21 09:20:54;;;;;;;0.60;0.30;;;15.40;99.90;;;;;;5045289;28;20037;-32
2023/10/21 09:23:20;;;;;;;0.38;0.38;;;15.40;99.90;;;;;;5043816;28;20037;-39
2023/10/21 09:25:50;;;;;;;0.40;0.40;;;15.50;99.90;;;;;;5045774;28;20041;-38
2023/10/21 09:28:23;;;;;;;1.02;0.25;;;15.50;99.90;;;;;;5048091;28;20035;-37
2023/10/21 09:30:57;;;;;;;1.15;0.30;;;15.50;99.90;;;;;;5045108;28;20512;-38
2023/10/21 09:33:23;;;;;;;0.25;0.25;;;15.40;99.90;;;;;;5045590;28;20021;-38
2023/10/21 09:36:03;;;;;;;0.47;0.30;;;15.50;99.90;;;;;;5047102;28;20087;-38
2023/10/21 09:38:35;;;;;;;0.80;0.65;;;15.50;99.90;;;;;;5044176;28;20029;-40
2023/10/21 09:41:05;;;;;;;0.30;0.30;;;15.50;99.90;;;;;;5038458;28;20033;-40
2023/10/21 09:43:32;;;;;;;0.55;0.30;;;15.40;99.90;;;;;;5040817;28;20025;-39
2023/10/21 09:46:05;;;;;;;1.35;0.40;;;15.40;99.90;;;;;;5037739;28;20135;-39
2023/10/21 09:48:35;;;;;;;0.28;0.28;;;15.60;99.90;;;;;;5044427;28;20056;-37
2023/10/21 09:51:06;;;;;;;0.30;0.30;;;15.70;99.90;;;;;;5044808;28;20021;-38
2023/10/21 09:53:45;;;;;;;0.65;0.40;;;15.70;99.90;;;;;;5041917;28;20430;-39
2023/10/21 09:56:14;;;;;;;0.20;0.20;;;15.70;99.90;;;;;;5043247;28;20051;-38
2023/10/21 09:58:40;;;;;;;0.45;0.40;;;15.70;99.90;;;;;;5043778;28;20538;-39
2023/10/21 10:01:07;;;;;;;0.63;0.40;;;15.70;99.90;;;;;;5043771;28;20052;-38
2023/10/21 10:03:35;;;;;;;1.17;0.30;;;15.70;99.90;;;;;;5043178;28;20474;-34
2023/10/21 10:06:05;;;;;;;0.65;0.40;;;15.70;99.90;;;;;;5041736;28;20051;-38
2023/10/21 10:08:33;;;;;;;0.30;0.30;;;15.60;99.90;;;;;;5038695;28;20128;-38
2023/10/21 10:11:08;;;;;;;0.90;0.47;;;15.60;99.90;;;;;;5039866;28;20033;-38
2023/10/21 10:13:37;;;;;;;1.67;0.40;;;15.60;99.90;;;;;;5043791;28;20040;-36
2023/10/21 10:16:19;;;;;;;0.40;0.40;;;15.60;99.90;;;;;;5041758;28;20036;-37
2023/10/21 10:18:50;;;;;;;0.30;0.30;;;15.60;99.90;;;;;;5041216;28;20029;-39
2023/10/21 10:21:17;;;;;;;0.20;0.20;;;15.60;99.90;;;;;;5042981;28;20489;-35
2023/10/21 10:23:55;;;;;;;0.47;0.47;;;15.60;99.90;;;;;;5044034;28;20494;-40
2023/10/21 10:26:51;;;;;;;1.65;0.40;;;15.60;99.90;;;;;;5038195;28;20029;-36
2023/10/21 10:29:26;;;;;;;0.28;0.28;;;15.60;99.90;;;;;;5042051;28;20045;-39
2023/10/21 10:32:14;;;;;;;1.20;0.70;;;15.60;99.90;;;;;;5041851;28;20033;-40
2023/10/21 10:34:52;;;;;;;;;;;15.60;99.90;;;;;;5040082;28;20039;-38
2023/10/21 10:37:37;;;;;;;0.40;0.40;;;15.50;99.90;;;;;;5041819;28;19913;-38
2023/10/21 10:40:19;;;;;;;0.30;0.30;;;15.50;99.90;;;;;;5044265;28;20421;-42
2023/10/21 10:42:45;;;;;;;2.17;0.40;;;15.40;99.90;;;;;;5042605;28;20044;-40
2023/10/21 10:45:11;;;;;;;1.75;0.47;;;15.40;99.90;;;;;;5043305;28;20021;-40
2023/10/21 10:47:40;;;;;;;0.20;0.20;;;15.30;99.90;;;;;;5042464;28;20036;-35
2023/10/21 10:50:19;;;;;;;0.85;0.38;;;15.40;99.90;;;;;;5042136;28;20479;-36
2023/10/21 10:52:46;;;;;;;0.40;0.40;;;15.40;99.90;;;;;;5040745;28;20028;-39
2023/10/21 10:55:12;;;;;;;2.30;0.73;;;15.50;99.90;;;;;;5040879;28;20069;-40
2023/10/21 10:57:37;;;;;;;0.43;0.22;;;15.50;99.90;;;;;;5041181;28;20067;-36
2023/10/21 11:00:10;;;;;;;0.95;0.30;;;15.60;99.90;;;;;;5044923;28;20120;-41
2023/10/21 11:02:42;;;;;;;0.30;0.30;;;15.60;99.90;;;;;;5037286;28;20029;-37
2023/10/21 11:05:09;;;;;;;0.28;0.28;;;15.70;99.90;;;;;;5041491;28;20613;-40
2023/10/21 11:07:35;;;;;;;1.23;0.40;;;15.70;99.90;;;;;;5042226;28;20606;-40
2023/10/21 11:10:01;;;;;;;0.65;0.38;;;15.70;99.90;;;;;;5043281;28;20070;-38
2023/10/21 11:12:27;;;;;;;0.40;0.40;;;15.70;99.90;;;;;;5041941;28;20064;-37
2023/10/21 11:14:53;;;;;;;1.05;0.40;;;15.70;99.90;;;;;;5043841;28;20120;-38
2023/10/21 11:17:20;;;;;;;0.30;0.30;;;15.70;99.90;;;;;;5043234;28;20032;-40
2023/10/21 11:19:45;;;;;;;0.40;0.40;;;15.60;99.90;;;;;;5042619;28;20064;-39
2023/10/21 11:22:22;;;;;;;0.50;0.50;;;15.60;99.90;;;;;;5041470;28;20049;-41
2023/10/21 11:24:47;;;;;;;0.50;0.38;;;15.50;99.90;;;;;;5039589;28;20049;-38
2023/10/21 11:27:15;;;;;;;0.30;0.30;;;15.50;99.90;;;;;;5046104;28;20036;-37
2023/10/21 11:29:41;;;;;;;0.28;0.28;;;15.60;99.90;;;;;;5046042;28;20532;-36
2023/10/21 11:32:13;;;;;;;0.80;0.30;;;15.60;99.90;;;;;;5045580;28;20075;-39
2023/10/21 11:34:43;;;;;;;0.22;0.22;;;15.70;99.90;;;;;;5047421;28;20037;-41
2023/10/21 11:37:10;;;;;;;1.58;0.25;;;15.70;99.90;;;;;;5045196;28;20600;-40
2023/10/21 11:39:39;;;;;;;0.40;0.40;;;15.80;99.90;;;;;;5044875;28;20083;-34
2023/10/21 11:42:17;;;;;;;0.90;0.50;;;15.80;99.90;;;;;;5043061;28;20033;-34
2023/10/21 11:44:54;;;;;;;0.25;0.25;;;15.90;99.90;;;;;;5044663;28;20032;-32
2023/10/21 11:47:23;;;;;;;0.30;0.30;;;15.90;99.90;;;;;;5044285;28;20036;-32
2023/10/21 11:49:49;;;;;;;0.90;0.30;;;15.90;99.90;;;;;;5044195;28;20047;-32
2023/10/21 11:52:16;;;;;;;1.13;0.30;;;15.90;99.90;;;;;;5045516;28;20381;-35
2023/10/21 11:54:48;;;;;;;0.52;0.52;;;15.90;99.90;;;;;;5048338;28;20091;-32
2023/10/21 12:11:14;;;;;;;0.50;0.30;;;15.90;99.90;;;;;;5046184;28;20025;-35
2023/10/21 12:13:45;;;;;;;0.20;0.20;;;15.90;99.90;;;;;;5044650;28;20115;-34
2023/10/21 12:22:16;;;;;;;0.55;0.30;;;15.90;99.90;;;;;;5041613;28;20126;-34
2023/10/21 12:35:30;;;;;;;0.40;0.40;;;15.80;99.90;;;;;;5043169;28;20508;-37
2023/10/21 12:40:36;;;;;;;0.50;0.47;;;15.80;99.90;;;;;;5038817;28;20052;-40
2023/10/21 12:45:47;;;;;;;0.28;0.28;;;15.90;99.90;;;;;;5044521;28;20100;-39
2023/10/21 12:48:17;;;;;;;0.25;0.20;;;16.00;99.90;;;;;;5042677;28;20037;-39
2023/10/21 12:50:50;;;;;;;0.75;0.75;;;15.90;99.90;;;;;;5043288;28;20035;-39
2023/10/21 12:53:17;;;;;;;1.33;0.30;;;15.90;99.90;;;;;;5041026;28;20104;-36
2023/10/21 12:55:43;;;;;;;0.40;0.30;;;15.90;99.90;;;;;;5049141;28;20482;-30
2023/10/21 12:58:10;;;;;;;0.30;0.30;;;15.90;99.90;;;;;;5046952;28;20048;-32
2023/10/21 13:00:37;;;;;;;0.60;0.22;;;15.90;99.90;;;;;;5046922;28;20078;-32
2023/10/21 13:03:10;;;;;;;0.80;0.32;;;16.00;99.90;;;;;;5041579;28;20044;-31
2023/10/21 13:05:39;;;;;;;0.35;0.35;;;16.00;99.90;;;;;;5046604;28;20123;-34
2023/10/21 13:08:09;;;;;;;0.50;0.40;;;16.00;99.90;;;;;;5044970;28;20029;-31
2023/10/21 13:10:35;;;;;;;0.40;0.40;;;16.00;99.90;;;;;;5047127;28;20013;-35
2023/10/21 13:13:02;;;;;;;0.30;0.30;;;15.90;99.90;;;;;;5046076;28;20079;-31
2023/10/21 13:15:29;;;;;;;0.30;0.30;;;15.90;99.90;;;;;;5044992;28;20021;-32
2023/10/21 13:17:55;;;;;;;0.40;0.40;;;15.90;99.90;;;;;;5045705;28;20036;-32
2023/10/21 13:20:21;;;;;;;0.47;0.40;;;16.00;99.90;;;;;;5044284;28;20029;-32
2023/10/21 13:22:47;;;;;;;2.22;0.50;;;15.90;99.90;;;;;;5044885;28;20048;-29
2023/10/21 13:25:13;;;;;;;0.47;0.47;;;16.00;99.90;;;;;;5046296;28;20045;-31